sensor_id;sensor_type;location;lat;lon;timestamp;temperature;humidity
76759;DHT22;65701;45.588;5.186;2024-03-07T05:14:33;2.58;75.75
76759;DHT22;65701;45.588;5.186;2024-03-07T05:16:58;2.58;75.64
76759;DHT22;65701;45.588;5.186;2024-03-07T05:19:36;2.56;75.58
76759;DHT22;65701;45.588;5.186;2024-03-07T05:22:02;2.53;75.57
76759;DHT22;65701;45.588;5.186;2024-03-07T05:24:31;2.53;75.61
76759;DHT22;65701;45.588;5.186;2024-03-07T05:27:00;2.53;75.63
76759;DHT22;65701;45.588;5.186;2024-03-07T05:29:26;2.53;75.81
76759;DHT22;65701;45.588;5.186;2024-03-07T05:31:52;2.55;75.92
76759;DHT22;65701;45.588;5.186;2024-03-07T05:34:18;2.55;75.85
76759;DHT22;65701;45.588;5.186;2024-03-07T05:36:45;2.53;75.78
76759;DHT22;65701;45.588;5.186;2024-03-07T05:39:16;2.55;75.74
76759;DHT22;65701;45.588;5.186;2024-03-07T05:41:44;2.51;75.81
76759;DHT22;65701;45.588;5.186;2024-03-07T05:44:13;2.48;75.80
76759;DHT22;65701;45.588;5.186;2024-03-07T05:46:40;2.46;75.84
76759;DHT22;65701;45.588;5.186;2024-03-07T05:49:15;2.46;75.72
76759;DHT22;65701;45.588;5.186;2024-03-07T05:51:42;2.46;75.59
76759;DHT22;65701;45.588;5.186;2024-03-07T05:54:10;2.44;75.63
76759;DHT22;65701;45.588;5.186;2024-03-07T05:56:38;2.42;75.61
76759;DHT22;65701;45.588;5.186;2024-03-07T05:59:05;2.40;75.58
76759;DHT22;65701;45.588;5.186;2024-03-07T06:01:33;2.32;75.73
76759;DHT22;65701;45.588;5.186;2024-03-07T06:04:03;2.31;75.85
76759;DHT22;65701;45.588;5.186;2024-03-07T06:06:31;2.31;75.82
76759;DHT22;65701;45.588;5.186;2024-03-07T06:08:58;2.37;75.78
76759;DHT22;65701;45.588;5.186;2024-03-07T06:11:24;2.35;75.76
76759;DHT22;65701;45.588;5.186;2024-03-07T06:13:51;2.40;75.68
76759;DHT22;65701;45.588;5.186;2024-03-07T06:16:16;2.42;75.66
76759;DHT22;65701;45.588;5.186;2024-03-07T06:18:43;2.40;75.60
76759;DHT22;65701;45.588;5.186;2024-03-07T06:21:11;2.44;75.64
76759;DHT22;65701;45.588;5.186;2024-03-07T06:23:38;2.42;75.64
76759;DHT22;65701;45.588;5.186;2024-03-07T06:26:04;2.46;75.59
76759;DHT22;65701;45.588;5.186;2024-03-07T06:28:38;2.53;75.79
76759;DHT22;65701;45.588;5.186;2024-03-07T06:31:04;2.62;75.88
76759;DHT22;65701;45.588;5.186;2024-03-07T06:33:33;2.72;75.92
76759;DHT22;65701;45.588;5.186;2024-03-07T06:35:58;2.85;75.93
76759;DHT22;65701;45.588;5.186;2024-03-07T06:38:26;2.96;75.93
76759;DHT22;65701;45.588;5.186;2024-03-07T06:40:52;3.06;76.00
76759;DHT22;65701;45.588;5.186;2024-03-07T06:43:18;3.18;76.16
76759;DHT22;65701;45.588;5.186;2024-03-07T06:45:43;3.28;76.06
76759;DHT22;65701;45.588;5.186;2024-03-07T06:48:11;3.38;76.06
76759;DHT22;65701;45.588;5.186;2024-03-07T06:50:39;3.51;76.07
76759;DHT22;65701;45.588;5.186;2024-03-07T06:53:05;3.62;76.03
76759;DHT22;65701;45.588;5.186;2024-03-07T06:55:34;3.78;75.99
76759;DHT22;65701;45.588;5.186;2024-03-07T06:58:00;3.86;75.92
76759;DHT22;65701;45.588;5.186;2024-03-07T07:00:25;3.98;75.81
76759;DHT22;65701;45.588;5.186;2024-03-07T07:02:52;4.08;75.76
76759;DHT22;65701;45.588;5.186;2024-03-07T07:05:20;4.24;75.70
76759;DHT22;65701;45.588;5.186;2024-03-07T07:07:45;4.37;75.64
76759;DHT22;65701;45.588;5.186;2024-03-07T07:10:13;4.52;75.57
76759;DHT22;65701;45.588;5.186;2024-03-07T07:12:46;4.69;75.83
76759;DHT22;65701;45.588;5.186;2024-03-07T07:15:13;4.80;75.72
76759;DHT22;65701;45.588;5.186;2024-03-07T07:17:41;4.94;75.48
76759;DHT22;65701;45.588;5.186;2024-03-07T07:20:07;5.10;75.37
76759;DHT22;65701;45.588;5.186;2024-03-07T07:22:37;5.27;75.79
76759;DHT22;65701;45.588;5.186;2024-03-07T07:25:04;5.45;76.55
76759;DHT22;65701;45.588;5.186;2024-03-07T07:27:31;5.65;77.14
76759;DHT22;65701;45.588;5.186;2024-03-07T07:29:57;5.85;76.90
76759;DHT22;65701;45.588;5.186;2024-03-07T07:32:23;6.11;76.71
76759;DHT22;65701;45.588;5.186;2024-03-07T07:34:49;6.29;76.69
76759;DHT22;65701;45.588;5.186;2024-03-07T07:37:14;6.48;76.41
76759;DHT22;65701;45.588;5.186;2024-03-07T07:39:39;6.62;76.09
76759;DHT22;65701;45.588;5.186;2024-03-07T07:42:05;6.83;75.63
76759;DHT22;65701;45.588;5.186;2024-03-07T07:44:30;6.96;75.28
76759;DHT22;65701;45.588;5.186;2024-03-07T07:46:56;7.07;74.93
76759;DHT22;65701;45.588;5.186;2024-03-07T07:49:22;7.17;74.62
76759;DHT22;65701;45.588;5.186;2024-03-07T07:51:47;7.32;74.48
76759;DHT22;65701;45.588;5.186;2024-03-07T07:54:14;7.45;74.33
76759;DHT22;65701;45.588;5.186;2024-03-07T07:56:39;7.56;74.27
76759;DHT22;65701;45.588;5.186;2024-03-07T07:59:05;7.73;74.07
76759;DHT22;65701;45.588;5.186;2024-03-07T08:01:32;7.83;73.80
76759;DHT22;65701;45.588;5.186;2024-03-07T08:03:59;7.95;73.57
76759;DHT22;65701;45.588;5.186;2024-03-07T08:06:24;8.05;73.20
76759;DHT22;65701;45.588;5.186;2024-03-07T08:08:50;8.17;72.92
76759;DHT22;65701;45.588;5.186;2024-03-07T08:11:15;8.20;72.72
76759;DHT22;65701;45.588;5.186;2024-03-07T08:13:41;8.29;72.57
76759;DHT22;65701;45.588;5.186;2024-03-07T08:16:06;8.44;72.57
76759;DHT22;65701;45.588;5.186;2024-03-07T08:18:32;8.56;72.49
76759;DHT22;65701;45.588;5.186;2024-03-07T08:20:58;8.69;72.34
76759;DHT22;65701;45.588;5.186;2024-03-07T08:23:23;8.81;72.27
76759;DHT22;65701;45.588;5.186;2024-03-07T08:25:51;8.84;71.65
76759;DHT22;65701;45.588;5.186;2024-03-07T08:28:17;8.97;71.31
76759;DHT22;65701;45.588;5.186;2024-03-07T08:30:43;9.04;71.09
76759;DHT22;65701;45.588;5.186;2024-03-07T08:33:10;9.05;70.87
76759;DHT22;65701;45.588;5.186;2024-03-07T08:35:36;8.99;70.12
76759;DHT22;65701;45.588;5.186;2024-03-07T08:38:01;8.97;69.88
76759;DHT22;65701;45.588;5.186;2024-03-07T08:40:28;9.01;69.61
76759;DHT22;65701;45.588;5.186;2024-03-07T08:42:57;9.03;69.69
76759;DHT22;65701;45.588;5.186;2024-03-07T08:45:23;9.15;69.49
76759;DHT22;65701;45.588;5.186;2024-03-07T08:47:51;9.20;69.60
76759;DHT22;65701;45.588;5.186;2024-03-07T08:50:18;9.25;69.41
76759;DHT22;65701;45.588;5.186;2024-03-07T08:52:45;9.30;69.03
76759;DHT22;65701;45.588;5.186;2024-03-07T08:55:15;9.38;68.66
76759;DHT22;65701;45.588;5.186;2024-03-07T08:57:42;9.41;68.78
76759;DHT22;65701;45.588;5.186;2024-03-07T09:00:13;9.53;68.68
76759;DHT22;65701;45.588;5.186;2024-03-07T09:02:48;9.48;68.33
76759;DHT22;65701;45.588;5.186;2024-03-07T09:05:21;9.55;68.08
76759;DHT22;65701;45.588;5.186;2024-03-07T09:07:51;9.65;68.36
76759;DHT22;65701;45.588;5.186;2024-03-07T09:10:17;9.77;68.25
76759;DHT22;65701;45.588;5.186;2024-03-07T09:12:43;9.83;68.20
76759;DHT22;65701;45.588;5.186;2024-03-07T09:15:09;9.97;67.78
76759;DHT22;65701;45.588;5.186;2024-03-07T09:17:39;9.94;67.43
76759;DHT22;65701;45.588;5.186;2024-03-07T09:20:08;10.07;67.58
76759;DHT22;65701;45.588;5.186;2024-03-07T09:22:42;10.14;67.44
76759;DHT22;65701;45.588;5.186;2024-03-07T09:25:08;10.11;67.24
76759;DHT22;65701;45.588;5.186;2024-03-07T09:27:34;10.24;67.01
76759;DHT22;65701;45.588;5.186;2024-03-07T09:29:59;10.34;67.29
76759;DHT22;65701;45.588;5.186;2024-03-07T09:32:25;10.42;67.16
76759;DHT22;65701;45.588;5.186;2024-03-07T09:34:50;10.50;67.40
76759;DHT22;65701;45.588;5.186;2024-03-07T09:37:16;10.60;67.28
76759;DHT22;65701;45.588;5.186;2024-03-07T09:39:43;10.72;67.37
76759;DHT22;65701;45.588;5.186;2024-03-07T09:42:08;10.76;67.04
76759;DHT22;65701;45.588;5.186;2024-03-07T09:44:36;10.79;66.72
76759;DHT22;65701;45.588;5.186;2024-03-07T09:47:05;10.81;66.24
76759;DHT22;65701;45.588;5.186;2024-03-07T09:49:30;10.83;65.80
76759;DHT22;65701;45.588;5.186;2024-03-07T09:51:58;10.79;65.67
76759;DHT22;65701;45.588;5.186;2024-03-07T09:54:25;10.87;65.40
76759;DHT22;65701;45.588;5.186;2024-03-07T09:56:58;10.94;65.42
76759;DHT22;65701;45.588;5.186;2024-03-07T09:59:28;10.86;65.25
76759;DHT22;65701;45.588;5.186;2024-03-07T10:01:57;10.99;65.14
76759;DHT22;65701;45.588;5.186;2024-03-07T10:04:31;11.07;64.80
76759;DHT22;65701;45.588;5.186;2024-03-07T10:07:02;11.15;64.69
76759;DHT22;65701;45.588;5.186;2024-03-07T10:09:29;11.14;64.30
76759;DHT22;65701;45.588;5.186;2024-03-07T10:11:58;11.25;64.50
76759;DHT22;65701;45.588;5.186;2024-03-07T10:14:24;11.30;64.72
76759;DHT22;65701;45.588;5.186;2024-03-07T10:16:50;11.34;64.06
76759;DHT22;65701;45.588;5.186;2024-03-07T10:19:15;11.20;63.57
76759;DHT22;65701;45.588;5.186;2024-03-07T10:21:41;11.24;63.36
76759;DHT22;65701;45.588;5.186;2024-03-07T10:24:08;11.35;63.22
76759;DHT22;65701;45.588;5.186;2024-03-07T10:26:37;11.42;63.38
76759;DHT22;65701;45.588;5.186;2024-03-07T10:29:06;11.34;63.58
76759;DHT22;65701;45.588;5.186;2024-03-07T10:31:34;11.58;63.51
76759;DHT22;65701;45.588;5.186;2024-03-07T10:34:03;11.25;63.14
76759;DHT22;65701;45.588;5.186;2024-03-07T10:36:32;11.62;63.36
76759;DHT22;65701;45.588;5.186;2024-03-07T10:39:01;11.54;63.25
76759;DHT22;65701;45.588;5.186;2024-03-07T10:41:28;11.42;62.82
76759;DHT22;65701;45.588;5.186;2024-03-07T10:43:57;11.52;62.40
76759;DHT22;65701;45.588;5.186;2024-03-07T10:46:26;11.61;62.13
76759;DHT22;65701;45.588;5.186;2024-03-07T10:48:55;11.80;62.34
76759;DHT22;65701;45.588;5.186;2024-03-07T10:51:40;11.87;62.35
76759;DHT22;65701;45.588;5.186;2024-03-07T10:54:24;11.93;61.88
76759;DHT22;65701;45.588;5.186;2024-03-07T10:57:31;11.80;61.18
76759;DHT22;65701;45.588;5.186;2024-03-07T11:00:04;12.00;61.37
76759;DHT22;65701;45.588;5.186;2024-03-07T11:02:49;11.89;60.88
76759;DHT22;65701;45.588;5.186;2024-03-07T11:05:20;11.86;60.74
76759;DHT22;65701;45.588;5.186;2024-03-07T11:07:50;12.13;60.58
76759;DHT22;65701;45.588;5.186;2024-03-07T11:10:18;12.27;60.78
76759;DHT22;65701;45.588;5.186;2024-03-07T11:12:44;12.10;60.19
76759;DHT22;65701;45.588;5.186;2024-03-07T11:15:12;12.24;59.64
76759;DHT22;65701;45.588;5.186;2024-03-07T11:17:46;12.25;59.49
76759;DHT22;65701;45.588;5.186;2024-03-07T11:20:22;12.27;59.31
76759;DHT22;65701;45.588;5.186;2024-03-07T11:22:48;12.35;59.62
76759;DHT22;65701;45.588;5.186;2024-03-07T11:25:17;12.48;59.35
76759;DHT22;65701;45.588;5.186;2024-03-07T11:27:56;12.30;58.78
76759;DHT22;65701;45.588;5.186;2024-03-07T11:30:24;12.48;58.60
76759;DHT22;65701;45.588;5.186;2024-03-07T11:32:51;12.56;58.80
76759;DHT22;65701;45.588;5.186;2024-03-07T11:35:20;12.48;58.67
76759;DHT22;65701;45.588;5.186;2024-03-07T11:37:57;12.72;57.71
76759;DHT22;65701;45.588;5.186;2024-03-07T11:42:50;12.59;56.61
76759;DHT22;65701;45.588;5.186;2024-03-07T11:45:19;12.51;55.81
76759;DHT22;65701;45.588;5.186;2024-03-07T11:47:52;12.58;55.56
76759;DHT22;65701;45.588;5.186;2024-03-07T11:50:33;12.59;55.37
76759;DHT22;65701;45.588;5.186;2024-03-07T11:53:03;12.65;54.83
76759;DHT22;65701;45.588;5.186;2024-03-07T11:55:39;12.70;55.31
76759;DHT22;65701;45.588;5.186;2024-03-07T11:58:18;12.72;55.38
76759;DHT22;65701;45.588;5.186;2024-03-07T12:00:47;12.49;54.91
76759;DHT22;65701;45.588;5.186;2024-03-07T12:03:17;12.51;55.10
76759;DHT22;65701;45.588;5.186;2024-03-07T12:05:45;12.66;55.08
76759;DHT22;65701;45.588;5.186;2024-03-07T12:08:11;12.77;55.75
76759;DHT22;65701;45.588;5.186;2024-03-07T12:10:41;12.83;55.57
76759;DHT22;65701;45.588;5.186;2024-03-07T12:13:09;12.85;54.97
76759;DHT22;65701;45.588;5.186;2024-03-07T12:15:37;12.95;55.33
76759;DHT22;65701;45.588;5.186;2024-03-07T12:18:04;13.02;55.83
76759;DHT22;65701;45.588;5.186;2024-03-07T12:20:37;13.10;55.93
76759;DHT22;65701;45.588;5.186;2024-03-07T12:23:04;13.07;55.23
76759;DHT22;65701;45.588;5.186;2024-03-07T12:25:37;13.00;54.91
76759;DHT22;65701;45.588;5.186;2024-03-07T12:30:54;13.08;54.04
76759;DHT22;65701;45.588;5.186;2024-03-07T12:33:22;13.07;54.65
76759;DHT22;65701;45.588;5.186;2024-03-07T12:35:52;12.93;54.27
76759;DHT22;65701;45.588;5.186;2024-03-07T12:38:20;13.00;54.09
76759;DHT22;65701;45.588;5.186;2024-03-07T12:41:01;13.10;54.55
76759;DHT22;65701;45.588;5.186;2024-03-07T12:43:31;13.17;55.00
76759;DHT22;65701;45.588;5.186;2024-03-07T12:45:58;13.23;54.89
76759;DHT22;65701;45.588;5.186;2024-03-07T12:48:24;13.30;54.85
76759;DHT22;65701;45.588;5.186;2024-03-07T12:50:51;13.37;54.95
76759;DHT22;65701;45.588;5.186;2024-03-07T12:53:23;13.42;55.24
76759;DHT22;65701;45.588;5.186;2024-03-07T12:55:51;13.45;55.39
76759;DHT22;65701;45.588;5.186;2024-03-07T12:58:17;13.44;55.11
76759;DHT22;65701;45.588;5.186;2024-03-07T13:00:45;13.47;54.99
76759;DHT22;65701;45.588;5.186;2024-03-07T13:03:11;13.50;55.04
76759;DHT22;65701;45.588;5.186;2024-03-07T13:05:40;13.47;54.53
76759;DHT22;65701;45.588;5.186;2024-03-07T13:08:06;13.50;54.74
76759;DHT22;65701;45.588;5.186;2024-03-07T13:10:37;13.57;55.31
76759;DHT22;65701;45.588;5.186;2024-03-07T13:13:03;13.58;55.18
76759;DHT22;65701;45.588;5.186;2024-03-07T13:15:30;13.54;55.07
76759;DHT22;65701;45.588;5.186;2024-03-07T13:17:55;13.59;55.39
76759;DHT22;65701;45.588;5.186;2024-03-07T13:20:21;13.59;55.76
76759;DHT22;65701;45.588;5.186;2024-03-07T13:22:51;13.61;55.78
76759;DHT22;65701;45.588;5.186;2024-03-07T13:25:22;13.66;55.96
76759;DHT22;65701;45.588;5.186;2024-03-07T13:30:39;13.75;56.50
76759;DHT22;65701;45.588;5.186;2024-03-07T13:33:05;13.80;56.45
76759;DHT22;65701;45.588;5.186;2024-03-07T13:35:31;13.82;56.25
76759;DHT22;65701;45.588;5.186;2024-03-07T13:37:57;13.78;55.83
76759;DHT22;65701;45.588;5.186;2024-03-07T13:40:24;13.79;55.65
76759;DHT22;65701;45.588;5.186;2024-03-07T13:42:51;13.73;55.24
76759;DHT22;65701;45.588;5.186;2024-03-07T13:45:18;13.75;55.66
76759;DHT22;65701;45.588;5.186;2024-03-07T13:47:45;13.75;56.17
76759;DHT22;65701;45.588;5.186;2024-03-07T13:50:14;13.80;56.58
76759;DHT22;65701;45.588;5.186;2024-03-07T13:52:40;13.69;55.93
76759;DHT22;65701;45.588;5.186;2024-03-07T13:55:10;13.72;55.36
76759;DHT22;65701;45.588;5.186;2024-03-07T13:57:50;13.72;55.66
76759;DHT22;65701;45.588;5.186;2024-03-07T14:00:36;13.70;55.49
76759;DHT22;65701;45.588;5.186;2024-03-07T14:03:19;13.70;55.76
76759;DHT22;65701;45.588;5.186;2024-03-07T14:06:08;13.73;55.81
76759;DHT22;65701;45.588;5.186;2024-03-07T14:23:01;13.63;53.97
76759;DHT22;65701;45.588;5.186;2024-03-07T14:30:54;13.58;53.48
76759;DHT22;65701;45.588;5.186;2024-03-07T14:33:27;13.59;53.19
76759;DHT22;65701;45.588;5.186;2024-03-07T14:36:05;13.58;53.07
76759;DHT22;65701;45.588;5.186;2024-03-07T14:38:53;13.57;53.27
76759;DHT22;65701;45.588;5.186;2024-03-07T14:44:17;13.62;53.31
76759;DHT22;65701;45.588;5.186;2024-03-07T14:46:43;13.59;53.55
76759;DHT22;65701;45.588;5.186;2024-03-07T14:49:14;13.45;52.69
76759;DHT22;65701;45.588;5.186;2024-03-07T14:51:41;13.54;52.28
76759;DHT22;65701;45.588;5.186;2024-03-07T14:54:07;13.59;52.87
76759;DHT22;65701;45.588;5.186;2024-03-07T14:56:33;13.61;53.31
76759;DHT22;65701;45.588;5.186;2024-03-07T14:58:59;13.62;53.50
76759;DHT22;65701;45.588;5.186;2024-03-07T15:01:26;13.63;53.08
76759;DHT22;65701;45.588;5.186;2024-03-07T15:03:53;13.61;53.43
76759;DHT22;65701;45.588;5.186;2024-03-07T15:06:20;13.63;54.01
76759;DHT22;65701;45.588;5.186;2024-03-07T15:08:47;13.62;53.63
76759;DHT22;65701;45.588;5.186;2024-03-07T15:11:36;13.61;53.41
76759;DHT22;65701;45.588;5.186;2024-03-07T15:14:08;13.58;53.44
76759;DHT22;65701;45.588;5.186;2024-03-07T15:16:35;13.58;53.30
76759;DHT22;65701;45.588;5.186;2024-03-07T15:19:11;13.58;53.51
76759;DHT22;65701;45.588;5.186;2024-03-07T15:21:38;13.58;53.34
76759;DHT22;65701;45.588;5.186;2024-03-07T15:24:04;13.58;53.84
76759;DHT22;65701;45.588;5.186;2024-03-07T15:26:30;13.57;53.93
76759;DHT22;65701;45.588;5.186;2024-03-07T15:28:59;13.59;54.38
76759;DHT22;65701;45.588;5.186;2024-03-07T15:31:28;13.58;54.70
76759;DHT22;65701;45.588;5.186;2024-03-07T15:33:54;13.55;54.85
76759;DHT22;65701;45.588;5.186;2024-03-07T15:36:21;13.55;55.03
76759;DHT22;65701;45.588;5.186;2024-03-07T15:38:47;13.55;55.17
76759;DHT22;65701;45.588;5.186;2024-03-07T15:41:13;13.52;55.16
76759;DHT22;65701;45.588;5.186;2024-03-07T15:43:39;13.50;54.40
76759;DHT22;65701;45.588;5.186;2024-03-07T15:46:11;13.50;54.17
76759;DHT22;65701;45.588;5.186;2024-03-07T15:48:38;13.52;54.52
76759;DHT22;65701;45.588;5.186;2024-03-07T15:51:05;13.51;54.67
76759;DHT22;65701;45.588;5.186;2024-03-07T15:53:32;13.52;55.02
76759;DHT22;65701;45.588;5.186;2024-03-07T15:56:02;13.51;54.98
76759;DHT22;65701;45.588;5.186;2024-03-07T15:58:28;13.51;54.80
76759;DHT22;65701;45.588;5.186;2024-03-07T16:00:53;13.45;54.57
76759;DHT22;65701;45.588;5.186;2024-03-07T16:03:19;13.50;54.57
76759;DHT22;65701;45.588;5.186;2024-03-07T16:05:48;13.50;54.91
76759;DHT22;65701;45.588;5.186;2024-03-07T16:08:15;13.51;55.19
76759;DHT22;65701;45.588;5.186;2024-03-07T16:10:41;13.42;55.10
76759;DHT22;65701;45.588;5.186;2024-03-07T16:13:12;13.41;54.94
76759;DHT22;65701;45.588;5.186;2024-03-07T16:15:42;13.41;54.91
76759;DHT22;65701;45.588;5.186;2024-03-07T16:18:11;13.35;54.80
76759;DHT22;65701;45.588;5.186;2024-03-07T16:20:37;13.34;54.67
76759;DHT22;65701;45.588;5.186;2024-03-07T16:23:03;13.35;55.02
76759;DHT22;65701;45.588;5.186;2024-03-07T16:25:33;13.34;55.41
76759;DHT22;65701;45.588;5.186;2024-03-07T16:28:05;13.32;55.61
76759;DHT22;65701;45.588;5.186;2024-03-07T16:30:32;13.30;55.69
76759;DHT22;65701;45.588;5.186;2024-03-07T16:32:58;13.28;55.94
76759;DHT22;65701;45.588;5.186;2024-03-07T16:35:28;13.25;56.15
76759;DHT22;65701;45.588;5.186;2024-03-07T16:37:57;13.24;56.15
76759;DHT22;65701;45.588;5.186;2024-03-07T16:40:24;13.23;56.34
76759;DHT22;65701;45.588;5.186;2024-03-07T16:42:55;13.18;56.34
76759;DHT22;65701;45.588;5.186;2024-03-07T16:45:21;13.17;56.44
76759;DHT22;65701;45.588;5.186;2024-03-07T16:47:49;13.14;56.48
76759;DHT22;65701;45.588;5.186;2024-03-07T16:50:26;13.10;56.63
76759;DHT22;65701;45.588;5.186;2024-03-07T16:52:53;13.06;56.66
76759;DHT22;65701;45.588;5.186;2024-03-07T16:55:20;13.00;56.71
76759;DHT22;65701;45.588;5.186;2024-03-07T16:57:47;12.97;56.80
76759;DHT22;65701;45.588;5.186;2024-03-07T17:00:15;12.96;56.94
76759;DHT22;65701;45.588;5.186;2024-03-07T17:05:32;12.85;57.04
76759;DHT22;65701;45.588;5.186;2024-03-07T17:07:59;12.80;57.06
76759;DHT22;65701;45.588;5.186;2024-03-07T17:10:28;12.77;57.05
76759;DHT22;65701;45.588;5.186;2024-03-07T17:12:57;12.73;56.66
76759;DHT22;65701;45.588;5.186;2024-03-07T17:15:23;12.66;55.98
76759;DHT22;65701;45.588;5.186;2024-03-07T17:17:50;12.65;55.49
76759;DHT22;65701;45.588;5.186;2024-03-07T17:20:21;12.59;55.93
76759;DHT22;65701;45.588;5.186;2024-03-07T17:22:53;12.58;56.21
76759;DHT22;65701;45.588;5.186;2024-03-07T17:25:21;12.53;56.45
76759;DHT22;65701;45.588;5.186;2024-03-07T17:27:48;12.45;56.21
76759;DHT22;65701;45.588;5.186;2024-03-07T17:30:21;12.44;56.06
76759;DHT22;65701;45.588;5.186;2024-03-07T17:32:48;12.44;56.39
76759;DHT22;65701;45.588;5.186;2024-03-07T17:35:18;12.37;56.78
76759;DHT22;65701;45.588;5.186;2024-03-07T17:37:47;12.28;57.02
76759;DHT22;65701;45.588;5.186;2024-03-07T17:40:13;12.21;56.83
76759;DHT22;65701;45.588;5.186;2024-03-07T17:42:46;12.17;56.83
76759;DHT22;65701;45.588;5.186;2024-03-07T17:45:24;12.08;57.04
76759;DHT22;65701;45.588;5.186;2024-03-07T17:47:51;12.04;57.29
76759;DHT22;65701;45.588;5.186;2024-03-07T17:50:28;11.97;57.54
76759;DHT22;65701;45.588;5.186;2024-03-07T17:53:01;11.93;57.79
76759;DHT22;65701;45.588;5.186;2024-03-07T17:55:33;11.89;57.85
76759;DHT22;65701;45.588;5.186;2024-03-07T17:57:58;11.82;57.86
76759;DHT22;65701;45.588;5.186;2024-03-07T18:00:26;11.76;58.08
76759;DHT22;65701;45.588;5.186;2024-03-07T18:02:55;11.69;58.38
76759;DHT22;65701;45.588;5.186;2024-03-07T18:05:23;11.59;58.67
76759;DHT22;65701;45.588;5.186;2024-03-07T18:07:51;11.49;58.96
76759;DHT22;65701;45.588;5.186;2024-03-07T18:10:17;11.35;59.36
76759;DHT22;65701;45.588;5.186;2024-03-07T18:12:51;11.24;59.62
76759;DHT22;65701;45.588;5.186;2024-03-07T18:15:22;11.14;59.93
76759;DHT22;65701;45.588;5.186;2024-03-07T18:17:53;11.03;60.19
76759;DHT22;65701;45.588;5.186;2024-03-07T18:20:27;10.92;60.43
76759;DHT22;65701;45.588;5.186;2024-03-07T18:22:58;10.83;60.69
76759;DHT22;65701;45.588;5.186;2024-03-07T18:25:23;10.75;60.86
76759;DHT22;65701;45.588;5.186;2024-03-07T18:30:14;10.63;60.99
76759;DHT22;65701;45.588;5.186;2024-03-07T18:32:44;10.53;61.03
76759;DHT22;65701;45.588;5.186;2024-03-07T18:35:10;10.45;61.22
76759;DHT22;65701;45.588;5.186;2024-03-07T18:37:35;10.35;61.36
76759;DHT22;65701;45.588;5.186;2024-03-07T18:40:04;10.28;61.48
76759;DHT22;65701;45.588;5.186;2024-03-07T18:42:36;10.24;61.66
76759;DHT22;65701;45.588;5.186;2024-03-07T18:45:05;10.15;61.85
76759;DHT22;65701;45.588;5.186;2024-03-07T18:47:40;10.08;62.00
76759;DHT22;65701;45.588;5.186;2024-03-07T18:50:07;9.98;62.17
76759;DHT22;65701;45.588;5.186;2024-03-07T18:52:35;9.94;62.24
76759;DHT22;65701;45.588;5.186;2024-03-07T18:57:43;9.86;62.60
76759;DHT22;65701;45.588;5.186;2024-03-07T19:00:13;9.83;62.73
76759;DHT22;65701;45.588;5.186;2024-03-07T19:02:54;9.79;62.77
76759;DHT22;65701;45.588;5.186;2024-03-07T19:05:23;9.76;62.89
76759;DHT22;65701;45.588;5.186;2024-03-07T19:07:50;9.73;62.97
76759;DHT22;65701;45.588;5.186;2024-03-07T19:10:17;9.70;62.88
76759;DHT22;65701;45.588;5.186;2024-03-07T19:12:43;9.70;62.84
76759;DHT22;65701;45.588;5.186;2024-03-07T19:15:09;9.69;62.81
76759;DHT22;65701;45.588;5.186;2024-03-07T19:17:35;9.67;62.80
76759;DHT22;65701;45.588;5.186;2024-03-07T19:20:01;9.62;62.91
76759;DHT22;65701;45.588;5.186;2024-03-07T19:22:49;9.58;62.94
76759;DHT22;65701;45.588;5.186;2024-03-07T19:25:18;9.55;63.00
76759;DHT22;65701;45.588;5.186;2024-03-07T19:27:48;9.49;63.06
76759;DHT22;65701;45.588;5.186;2024-03-07T19:32:48;9.41;63.15
76759;DHT22;65701;45.588;5.186;2024-03-07T19:35:14;9.39;63.19
76759;DHT22;65701;45.588;5.186;2024-03-07T19:37:47;9.31;63.16
76759;DHT22;65701;45.588;5.186;2024-03-07T19:40:20;9.30;63.06
76759;DHT22;65701;45.588;5.186;2024-03-07T19:42:50;9.31;63.01
76759;DHT22;65701;45.588;5.186;2024-03-07T19:45:17;9.31;63.11
76759;DHT22;65701;45.588;5.186;2024-03-07T19:47:43;9.28;63.15
76759;DHT22;65701;45.588;5.186;2024-03-07T19:50:09;9.27;63.24
76759;DHT22;65701;45.588;5.186;2024-03-07T19:52:41;9.24;63.20
76759;DHT22;65701;45.588;5.186;2024-03-07T19:55:08;9.20;63.13
76759;DHT22;65701;45.588;5.186;2024-03-07T19:57:35;9.18;63.16
76759;DHT22;65701;45.588;5.186;2024-03-07T20:00:05;9.18;63.17
76759;DHT22;65701;45.588;5.186;2024-03-07T20:02:38;9.17;63.15
76759;DHT22;65701;45.588;5.186;2024-03-07T20:05:08;9.14;63.14
76759;DHT22;65701;45.588;5.186;2024-03-07T20:07:35;9.14;63.12
76759;DHT22;65701;45.588;5.186;2024-03-07T20:10:01;9.15;63.18
76759;DHT22;65701;45.588;5.186;2024-03-07T20:12:33;9.18;63.26
76759;DHT22;65701;45.588;5.186;2024-03-07T20:14:58;9.17;63.34
76759;DHT22;65701;45.588;5.186;2024-03-07T20:17:24;9.17;63.40
76759;DHT22;65701;45.588;5.186;2024-03-07T20:19:49;9.13;63.43
76759;DHT22;65701;45.588;5.186;2024-03-07T20:22:14;9.15;63.42
76759;DHT22;65701;45.588;5.186;2024-03-07T20:24:40;9.14;63.47
76759;DHT22;65701;45.588;5.186;2024-03-07T20:27:05;9.13;63.52
76759;DHT22;65701;45.588;5.186;2024-03-07T20:29:31;9.15;63.58
76759;DHT22;65701;45.588;5.186;2024-03-07T20:31:56;9.14;63.68
76759;DHT22;65701;45.588;5.186;2024-03-07T20:34:23;9.21;63.78
76759;DHT22;65701;45.588;5.186;2024-03-07T20:36:49;9.22;63.92
76759;DHT22;65701;45.588;5.186;2024-03-07T20:39:15;9.24;63.97
76759;DHT22;65701;45.588;5.186;2024-03-07T20:41:51;9.30;64.04
76759;DHT22;65701;45.588;5.186;2024-03-07T20:44:17;9.34;64.05
76759;DHT22;65701;45.588;5.186;2024-03-07T20:46:48;9.36;64.14
76759;DHT22;65701;45.588;5.186;2024-03-07T20:49:14;9.39;64.22
76759;DHT22;65701;45.588;5.186;2024-03-07T20:51:44;9.39;64.27
76759;DHT22;65701;45.588;5.186;2024-03-07T20:54:10;9.42;64.38
76759;DHT22;65701;45.588;5.186;2024-03-07T20:56:44;9.45;64.44
76759;DHT22;65701;45.588;5.186;2024-03-07T20:59:15;9.46;64.48
76759;DHT22;65701;45.588;5.186;2024-03-07T21:01:48;9.48;64.48
76759;DHT22;65701;45.588;5.186;2024-03-07T21:04:14;9.46;64.55
76759;DHT22;65701;45.588;5.186;2024-03-07T21:06:44;9.52;64.65
76759;DHT22;65701;45.588;5.186;2024-03-07T21:09:11;9.56;64.72
76759;DHT22;65701;45.588;5.186;2024-03-07T21:11:37;9.55;64.76
76759;DHT22;65701;45.588;5.186;2024-03-07T21:14:05;9.58;64.80
76759;DHT22;65701;45.588;5.186;2024-03-07T21:16:35;9.56;64.91
76759;DHT22;65701;45.588;5.186;2024-03-07T21:19:01;9.59;65.06
76759;DHT22;65701;45.588;5.186;2024-03-07T21:21:28;9.60;65.10
76759;DHT22;65701;45.588;5.186;2024-03-07T21:23:53;9.60;65.14
76759;DHT22;65701;45.588;5.186;2024-03-07T21:26:19;9.59;65.25
76759;DHT22;65701;45.588;5.186;2024-03-07T21:28:44;9.59;65.39
76759;DHT22;65701;45.588;5.186;2024-03-07T21:31:10;9.60;65.50
76759;DHT22;65701;45.588;5.186;2024-03-07T21:33:36;9.62;65.54
76759;DHT22;65701;45.588;5.186;2024-03-07T21:36:02;9.59;65.63
76759;DHT22;65701;45.588;5.186;2024-03-07T21:38:27;9.58;65.74
76759;DHT22;65701;45.588;5.186;2024-03-07T21:40:53;9.58;65.85